Time;durP1;ratioP1;P1;durP2;ratioP2;P2;SDS_P1;SDS_P2;PMS_P1;PMS_P2;Temp;Humidity;BMP_temperature;BMP_pressure;BME280_temperature;BME280_humidity;BME280_pressure;Samples;Min_cycle;Max_cycle;Signal;HPM_P1;HPM_P2
2020/12/07 00:00:42;;;;;;;32.40;23.23;;;5.20;99.90;;;;;;5091020;28;20196;-71
2020/12/07 00:03:08;;;;;;;34.07;23.30;;;5.30;99.90;;;;;;5091713;28;20528;-71
2020/12/07 00:05:35;;;;;;;36.33;23.10;;;5.30;99.90;;;;;;5090632;28;20441;-71
2020/12/07 00:08:01;;;;;;;36.30;22.43;;;5.10;99.90;;;;;;5093704;28;20229;-71
2020/12/07 00:10:27;;;;;;;36.97;24.53;;;5.00;99.90;;;;;;5093311;28;20787;-71
2020/12/07 00:12:52;;;;;;;31.17;21.07;;;5.00;99.90;;;;;;5092523;28;20442;-71
2020/12/07 00:15:18;;;;;;;30.10;22.67;;;4.90;99.90;;;;;;5091700;28;20209;-71
2020/12/07 00:17:43;;;;;;;36.63;26.33;;;4.90;99.90;;;;;;5091603;28;20654;-71
2020/12/07 00:20:10;;;;;;;32.57;23.37;;;4.90;99.90;;;;;;5093481;28;20666;-70
2020/12/07 00:22:36;;;;;;;33.93;22.17;;;5.00;99.90;;;;;;5093218;28;20174;-70
2020/12/07 00:25:03;;;;;;;29.37;21.17;;;4.90;99.90;;;;;;5093552;28;20447;-70
2020/12/07 00:27:30;;;;;;;33.70;22.37;;;5.10;99.90;;;;;;5092873;28;20488;-70
2020/12/07 00:29:57;;;;;;;35.97;23.63;;;5.10;99.90;;;;;;5091634;28;20653;-70
2020/12/07 00:32:24;;;;;;;31.43;23.27;;;5.10;99.90;;;;;;5092046;28;20427;-71
2020/12/07 00:34:50;;;;;;;33.60;24.03;;;5.20;99.90;;;;;;5092612;28;20509;-71
2020/12/07 00:37:17;;;;;;;30.83;23.33;;;5.20;99.90;;;;;;5092119;28;20427;-71
2020/12/07 00:39:42;;;;;;;31.23;23.30;;;5.30;99.90;;;;;;5092371;28;20481;-71
2020/12/07 00:42:09;;;;;;;33.67;23.67;;;5.30;99.90;;;;;;5091551;28;20455;-71
2020/12/07 00:44:38;;;;;;;33.17;24.13;;;5.20;99.90;;;;;;5093416;28;20192;-71
2020/12/07 00:47:05;;;;;;;39.67;26.47;;;5.20;99.90;;;;;;5090919;28;20427;-71
2020/12/07 00:49:32;;;;;;;37.93;27.17;;;5.20;99.90;;;;;;5092655;28;20959;-71
2020/12/07 00:51:57;;;;;;;31.63;24.67;;;5.20;99.90;;;;;;5091833;28;20518;-71
2020/12/07 00:54:23;;;;;;;38.43;28.67;;;5.20;99.90;;;;;;5083821;28;20557;-71
2020/12/07 00:56:57;;;;;;;39.37;26.47;;;5.20;99.90;;;;;;5087358;28;20233;-71
2020/12/07 00:59:23;;;;;;;39.10;26.00;;;5.20;99.90;;;;;;5088976;28;20450;-71
2020/12/07 01:01:50;;;;;;;41.87;27.33;;;5.20;99.90;;;;;;5091395;28;20431;-71
2020/12/07 01:04:16;;;;;;;38.63;26.80;;;5.20;99.90;;;;;;5083761;28;20474;-70
2020/12/07 01:06:45;;;;;;;40.70;29.10;;;5.20;99.90;;;;;;5090521;28;20437;-71
2020/12/07 01:09:20;;;;;;;39.77;27.20;;;5.20;99.90;;;;;;5091892;28;20593;-70
2020/12/07 01:11:53;;;;;;;38.33;25.07;;;5.20;99.90;;;;;;5091641;28;20517;-70
2020/12/07 01:14:18;;;;;;;34.73;25.10;;;5.20;99.90;;;;;;5091614;28;20508;-71
2020/12/07 01:16:44;;;;;;;40.10;27.30;;;5.20;99.90;;;;;;5093661;28;20928;-70
2020/12/07 01:19:09;;;;;;;42.83;27.27;;;5.20;99.90;;;;;;5092308;28;20195;-71
2020/12/07 01:21:35;;;;;;;37.10;23.77;;;5.20;99.90;;;;;;5083871;28;20671;-71
2020/12/07 01:24:02;;;;;;;40.43;26.87;;;5.20;99.90;;;;;;5092605;28;20808;-71
2020/12/07 01:26:30;;;;;;;38.30;25.73;;;5.20;99.90;;;;;;5093574;28;20473;-71
2020/12/07 01:28:56;;;;;;;35.43;25.27;;;5.20;99.90;;;;;;5093434;28;20447;-71
2020/12/07 01:31:21;;;;;;;34.90;24.70;;;5.20;99.90;;;;;;5093740;28;20451;-71
2020/12/07 01:33:47;;;;;;;36.77;23.03;;;5.10;99.90;;;;;;5092278;28;20490;-71
2020/12/07 01:36:13;;;;;;;40.33;27.27;;;5.20;99.90;;;;;;5091172;28;20177;-71
2020/12/07 01:38:39;;;;;;;40.10;25.87;;;5.20;99.90;;;;;;5092489;28;20256;-71
2020/12/07 01:41:04;;;;;;;39.63;26.43;;;5.20;99.90;;;;;;5090604;28;20527;-71
2020/12/07 01:43:30;;;;;;;36.13;24.50;;;5.20;99.90;;;;;;5092293;28;20424;-71
2020/12/07 01:45:57;;;;;;;32.93;23.40;;;5.10;99.90;;;;;;5091751;28;20181;-71
2020/12/07 01:48:26;;;;;;;36.37;24.60;;;5.10;99.90;;;;;;5090878;28;20185;-71
2020/12/07 01:50:53;;;;;;;38.40;27.70;;;5.10;99.90;;;;;;5090413;28;20435;-70
2020/12/07 01:53:21;;;;;;;40.43;26.87;;;5.10;99.90;;;;;;5091035;28;20767;-71
2020/12/07 01:55:47;;;;;;;38.00;24.63;;;5.10;99.90;;;;;;5090238;28;20458;-71
2020/12/07 01:58:13;;;;;;;42.47;27.43;;;5.20;99.90;;;;;;5090787;28;20435;-71
2020/12/07 02:00:39;;;;;;;38.97;24.67;;;5.10;99.90;;;;;;5087115;28;20451;-71
2020/12/07 02:03:04;;;;;;;35.83;24.80;;;5.20;99.90;;;;;;5088885;28;20596;-70
2020/12/07 02:05:30;;;;;;;40.23;25.63;;;5.10;99.90;;;;;;5091384;28;20259;-70
2020/12/07 02:08:12;;;;;;;47.00;26.50;;;5.10;99.90;;;;;;5091040;28;20962;-71
2020/12/07 02:10:38;;;;;;;35.73;26.47;;;5.00;99.90;;;;;;5090261;28;20966;-70
2020/12/07 02:13:04;;;;;;;40.73;25.83;;;5.10;99.90;;;;;;5091116;28;20439;-71
2020/12/07 02:15:30;;;;;;;39.60;25.27;;;5.10;99.90;;;;;;5089745;28;20819;-71
2020/12/07 02:17:56;;;;;;;40.90;28.90;;;5.10;99.90;;;;;;5091043;28;20166;-71
2020/12/07 02:20:21;;;;;;;42.00;26.77;;;5.10;99.90;;;;;;5090208;28;20450;-71
2020/12/07 02:22:47;;;;;;;48.60;28.60;;;5.10;99.90;;;;;;5087867;28;20442;-71
2020/12/07 02:25:13;;;;;;;48.60;26.63;;;5.10;99.90;;;;;;5090394;28;20264;-71
2020/12/07 02:27:38;;;;;;;43.30;28.20;;;5.10;99.90;;;;;;5091682;28;20181;-71
2020/12/07 02:30:04;;;;;;;42.23;25.80;;;5.20;99.90;;;;;;5091740;28;20204;-71
2020/12/07 02:32:29;;;;;;;45.50;28.10;;;5.20;99.90;;;;;;5089179;28;20181;-71
2020/12/07 02:34:55;;;;;;;40.33;25.97;;;5.10;99.90;;;;;;5091510;28;20284;-71
2020/12/07 02:37:22;;;;;;;42.07;27.63;;;5.10;99.90;;;;;;5092457;28;20172;-71
2020/12/07 02:39:48;;;;;;;47.07;27.30;;;5.00;99.90;;;;;;5091827;28;20197;-71
2020/12/07 02:42:14;;;;;;;53.50;30.43;;;4.90;99.90;;;;;;5091310;28;20810;-71
2020/12/07 02:44:40;;;;;;;52.47;30.63;;;4.90;99.90;;;;;;5091970;28;20654;-71
2020/12/07 02:47:05;;;;;;;47.37;29.33;;;5.00;99.90;;;;;;5091963;28;20185;-71
2020/12/07 02:49:31;;;;;;;49.20;28.90;;;5.00;99.90;;;;;;5092926;28;20216;-71
2020/12/07 02:51:57;;;;;;;42.07;27.07;;;4.90;99.90;;;;;;5090029;28;20174;-71
2020/12/07 02:54:22;;;;;;;44.17;29.03;;;4.90;99.90;;;;;;5089636;28;20201;-71
2020/12/07 02:56:48;;;;;;;49.47;29.13;;;4.90;99.90;;;;;;5090174;28;20443;-70
2020/12/07 02:59:14;;;;;;;43.33;29.17;;;5.00;99.90;;;;;;5090879;28;20189;-70
2020/12/07 03:01:39;;;;;;;43.00;28.50;;;4.90;99.90;;;;;;5088680;28;20173;-71
2020/12/07 03:04:06;;;;;;;44.10;28.37;;;5.00;99.90;;;;;;5092810;28;20310;-70
2020/12/07 03:06:31;;;;;;;39.40;27.70;;;4.90;99.90;;;;;;5094956;28;20177;-70
2020/12/07 03:08:57;;;;;;;48.07;29.37;;;4.90;99.90;;;;;;5094122;28;20465;-71
2020/12/07 03:11:23;;;;;;;51.10;30.97;;;4.80;99.90;;;;;;5094035;28;20184;-71
2020/12/07 03:13:49;;;;;;;49.03;29.53;;;4.50;99.90;;;;;;5094045;28;20208;-70
2020/12/07 03:16:15;;;;;;;54.17;29.93;;;4.70;99.90;;;;;;5094102;28;20867;-70
2020/12/07 03:18:41;;;;;;;49.67;30.40;;;4.70;99.90;;;;;;5094370;28;20523;-71
2020/12/07 03:21:07;;;;;;;59.63;33.93;;;4.70;99.90;;;;;;5093117;28;20177;-70
2020/12/07 03:23:32;;;;;;;51.67;30.00;;;4.70;99.90;;;;;;5092151;28;20576;-71
2020/12/07 03:25:58;;;;;;;42.27;28.17;;;4.80;99.90;;;;;;5094520;28;20477;-70
2020/12/07 03:28:24;;;;;;;49.47;31.63;;;4.90;99.90;;;;;;5093953;28;20208;-71
2020/12/07 03:30:49;;;;;;;47.10;28.90;;;4.90;99.90;;;;;;5092897;28;20462;-70
2020/12/07 03:33:15;;;;;;;49.53;31.40;;;4.80;99.90;;;;;;5093301;28;20174;-70
2020/12/07 03:35:41;;;;;;;43.87;27.57;;;4.80;99.90;;;;;;5093139;28;20209;-71
2020/12/07 03:38:06;;;;;;;44.60;26.57;;;4.90;99.90;;;;;;5093062;28;20592;-71
2020/12/07 03:40:33;;;;;;;45.53;28.00;;;5.00;99.90;;;;;;5092623;28;20193;-71
2020/12/07 03:42:59;;;;;;;42.37;29.30;;;4.90;99.90;;;;;;5094095;28;20227;-71
2020/12/07 03:45:25;;;;;;;47.53;29.20;;;4.80;99.90;;;;;;5093280;28;20443;-71
2020/12/07 03:47:51;;;;;;;45.23;31.33;;;4.70;99.90;;;;;;5094363;28;20188;-71
2020/12/07 03:50:16;;;;;;;56.97;30.40;;;4.40;99.90;;;;;;5095312;28;20451;-71
2020/12/07 03:52:42;;;;;;;46.47;29.57;;;4.40;99.90;;;;;;5091851;28;20181;-71
2020/12/07 03:55:08;;;;;;;41.83;27.57;;;4.50;99.90;;;;;;5089228;28;20197;-70
2020/12/07 03:57:33;;;;;;;45.30;29.07;;;4.50;99.90;;;;;;5092579;28;20211;-70
2020/12/07 03:59:59;;;;;;;54.60;29.90;;;4.50;99.90;;;;;;5092377;28;20197;-71
2020/12/07 04:02:26;;;;;;;48.47;30.33;;;4.60;99.90;;;;;;5093433;28;20635;-71
2020/12/07 04:04:55;;;;;;;44.60;28.67;;;4.60;99.90;;;;;;5092727;28;20181;-70
2020/12/07 04:07:21;;;;;;;48.90;31.30;;;4.50;99.90;;;;;;5089428;28;20553;-70
2020/12/07 04:09:46;;;;;;;53.30;33.67;;;4.50;99.90;;;;;;5085746;28;20550;-70
2020/12/07 04:12:12;;;;;;;59.77;33.33;;;4.50;99.90;;;;;;5092227;28;20173;-71
2020/12/07 04:14:37;;;;;;;50.77;32.33;;;4.50;99.90;;;;;;5092260;28;20205;-70
2020/12/07 04:17:03;;;;;;;47.53;29.27;;;4.40;99.90;;;;;;5093445;28;20633;-70
2020/12/07 04:19:29;;;;;;;50.53;32.50;;;4.50;99.90;;;;;;5092499;28;20198;-70
2020/12/07 04:21:55;;;;;;;52.40;35.50;;;4.40;99.90;;;;;;5093214;28;20169;-71
2020/12/07 04:24:20;;;;;;;52.37;32.00;;;4.40;99.90;;;;;;5092375;28;20443;-70
2020/12/07 04:26:46;;;;;;;41.67;29.47;;;4.40;99.90;;;;;;5093142;28;20253;-71
2020/12/07 04:29:11;;;;;;;49.53;30.33;;;4.40;99.90;;;;;;5089069;28;20200;-71
2020/12/07 04:31:37;;;;;;;50.13;28.57;;;4.40;99.90;;;;;;5092423;28;20189;-70
2020/12/07 04:34:02;;;;;;;49.30;31.00;;;4.60;99.90;;;;;;5092650;28;20681;-70
2020/12/07 04:36:28;;;;;;;46.17;29.80;;;4.60;99.90;;;;;;5090503;28;20186;-71
2020/12/07 04:38:54;;;;;;;40.13;26.67;;;4.70;99.90;;;;;;5091214;28;20715;-71
2020/12/07 04:41:19;;;;;;;49.30;29.97;;;4.70;99.90;;;;;;5092052;28;20205;-70
2020/12/07 04:43:48;;;;;;;44.03;28.40;;;4.60;99.90;;;;;;5090402;28;20173;-70
2020/12/07 04:46:14;;;;;;;44.57;27.13;;;4.70;99.90;;;;;;5092571;28;20184;-70
2020/12/07 04:48:41;;;;;;;43.07;26.37;;;4.70;99.90;;;;;;5091462;28;21208;-70
2020/12/07 04:51:09;;;;;;;44.47;28.30;;;4.70;99.90;;;;;;5092613;28;20177;-71
2020/12/07 04:53:35;;;;;;;43.30;27.27;;;4.70;99.90;;;;;;5090911;28;20522;-71
2020/12/07 04:56:01;;;;;;;44.07;27.00;;;4.70;99.90;;;;;;5091301;28;20442;-71
2020/12/07 04:58:28;;;;;;;45.40;31.17;;;4.90;99.90;;;;;;5091616;28;20480;-71
2020/12/07 05:00:53;;;;;;;49.03;32.30;;;4.80;99.90;;;;;;5092555;28;20489;-71
2020/12/07 05:03:19;;;;;;;47.37;30.50;;;4.80;99.90;;;;;;5092241;28;20471;-71
2020/12/07 05:05:45;;;;;;;50.83;33.27;;;4.70;99.90;;;;;;5092103;28;20204;-71
2020/12/07 05:08:11;;;;;;;46.33;31.47;;;4.60;99.90;;;;;;5093878;28;20631;-71
2020/12/07 05:10:41;;;;;;;48.93;32.70;;;4.70;99.90;;;;;;5092259;28;20686;-71
2020/12/07 05:13:41;;;;;;;45.43;30.70;;;4.80;99.90;;;;;;5088377;28;20847;-71
2020/12/07 05:15:58;;;;;;;50.90;32.43;;;4.90;99.90;;;;;;5092244;28;20427;-71
2020/12/07 05:18:24;;;;;;;48.07;31.07;;;4.90;99.90;;;;;;5092402;28;20438;-71
2020/12/07 05:20:49;;;;;;;44.97;31.03;;;4.80;99.90;;;;;;5091098;28;20199;-71
2020/12/07 05:23:16;;;;;;;48.87;31.60;;;4.60;99.90;;;;;;5091172;28;20280;-71
2020/12/07 05:25:45;;;;;;;56.17;34.60;;;4.60;99.90;;;;;;5090072;28;20268;-70
2020/12/07 05:28:12;;;;;;;48.30;32.00;;;4.60;99.90;;;;;;5090019;28;20431;-71
2020/12/07 05:30:45;;;;;;;59.77;35.27;;;4.50;99.90;;;;;;5091266;28;20444;-70
2020/12/07 05:33:14;;;;;;;52.13;32.20;;;4.40;99.90;;;;;;5090195;28;20770;-70
2020/12/07 05:35:40;;;;;;;43.57;29.90;;;4.50;99.90;;;;;;5091067;28;20466;-70
2020/12/07 05:38:06;;;;;;;55.57;31.93;;;4.50;99.90;;;;;;5091374;28;20438;-70
2020/12/07 05:40:32;;;;;;;43.37;29.20;;;4.60;99.90;;;;;;5090274;28;20447;-70
2020/12/07 05:42:58;;;;;;;48.30;32.00;;;4.60;99.90;;;;;;5080033;28;20427;-70
2020/12/07 05:45:25;;;;;;;48.40;30.00;;;4.50;99.90;;;;;;5090755;28;20419;-70
2020/12/07 05:47:52;;;;;;;47.63;29.30;;;4.50;99.90;;;;;;5089684;28;20500;-70
2020/12/07 05:50:19;;;;;;;56.60;31.30;;;4.40;99.90;;;;;;5091784;28;20443;-70
2020/12/07 05:52:53;;;;;;;49.33;30.27;;;4.40;99.90;;;;;;5090210;28;20580;-70
2020/12/07 05:55:20;;;;;;;53.00;29.17;;;4.30;99.90;;;;;;5090191;28;20534;-70
2020/12/07 05:57:58;;;;;;;48.10;28.37;;;4.40;99.90;;;;;;5090246;28;20524;-70
2020/12/07 06:00:25;;;;;;;52.70;30.90;;;4.50;99.90;;;;;;5089338;28;20490;-70
2020/12/07 06:02:52;;;;;;;48.70;28.73;;;4.50;99.90;;;;;;5090205;28;20435;-70
2020/12/07 06:05:22;;;;;;;47.63;29.03;;;4.50;99.90;;;;;;5090126;28;20432;-70
2020/12/07 06:08:04;;;;;;;49.90;28.83;;;4.40;99.90;;;;;;5090588;28;20430;-70
2020/12/07 06:10:40;;;;;;;45.50;27.70;;;4.40;99.90;;;;;;5091112;28;20528;-70
2020/12/07 06:13:18;;;;;;;44.23;27.40;;;4.40;99.90;;;;;;5084825;28;20441;-71
2020/12/07 06:15:44;;;;;;;49.43;26.67;;;4.40;99.90;;;;;;5087987;28;20465;-70
2020/12/07 06:18:28;;;;;;;40.40;25.70;;;4.30;99.90;;;;;;5091778;28;20823;-70
2020/12/07 06:21:03;;;;;;;50.40;27.20;;;4.40;99.90;;;;;;5090612;28;20449;-70
2020/12/07 06:23:34;;;;;;;41.50;26.67;;;4.40;99.90;;;;;;5091401;28;20419;-70
2020/12/07 06:26:02;;;;;;;42.47;25.27;;;4.30;99.90;;;;;;5090061;28;20427;-70
2020/12/07 06:28:34;;;;;;;44.00;26.20;;;4.30;99.90;;;;;;5091472;28;20430;-70
2020/12/07 06:31:04;;;;;;;42.47;26.73;;;4.20;99.90;;;;;;5088930;28;20427;-70
2020/12/07 06:33:30;;;;;;;40.73;25.50;;;4.20;99.90;;;;;;5090846;28;20513;-70
2020/12/07 06:35:56;;;;;;;41.43;25.13;;;4.20;99.90;;;;;;5091330;28;20465;-70
2020/12/07 06:38:22;;;;;;;39.83;25.17;;;4.30;99.90;;;;;;5091084;28;20463;-70
2020/12/07 06:40:52;;;;;;;34.23;22.53;;;4.30;99.90;;;;;;5092720;28;20477;-71
2020/12/07 06:43:28;;;;;;;40.20;25.13;;;4.30;99.90;;;;;;5095219;28;20170;-70
2020/12/07 06:45:54;;;;;;;44.00;24.23;;;4.30;99.90;;;;;;5094723;28;20444;-71
2020/12/07 06:48:22;;;;;;;34.83;23.00;;;4.30;99.90;;;;;;5095012;28;20525;-70
2020/12/07 06:50:50;;;;;;;36.87;23.40;;;4.30;99.90;;;;;;5094949;28;20431;-70
2020/12/07 06:53:41;;;;;;;39.27;23.80;;;4.40;99.90;;;;;;5093118;28;20507;-70
2020/12/07 06:56:08;;;;;;;41.10;25.67;;;4.40;99.90;;;;;;5094126;28;20461;-70
2020/12/07 06:58:38;;;;;;;38.73;24.60;;;4.30;99.90;;;;;;5094690;28;20889;-70
2020/12/07 07:01:15;;;;;;;38.00;22.87;;;4.30;99.90;;;;;;5087684;28;20427;-70
2020/12/07 07:03:52;;;;;;;40.90;23.97;;;4.30;99.90;;;;;;5094621;28;20478;-70
2020/12/07 07:06:19;;;;;;;37.33;24.70;;;4.20;99.90;;;;;;5093513;28;20815;-71
2020/12/07 07:08:45;;;;;;;37.17;23.53;;;4.20;99.90;;;;;;5094594;28;20447;-70
2020/12/07 07:11:10;;;;;;;37.50;22.87;;;4.30;99.90;;;;;;5095028;28;20476;-70
2020/12/07 07:13:36;;;;;;;39.97;25.03;;;4.30;99.90;;;;;;5095108;28;20182;-71
2020/12/07 07:16:04;;;;;;;37.03;21.77;;;4.30;99.90;;;;;;5095131;28;20174;-71
2020/12/07 07:18:29;;;;;;;39.50;23.47;;;4.30;99.90;;;;;;5091095;28;20173;-71
2020/12/07 07:21:02;;;;;;;37.80;22.83;;;4.40;99.90;;;;;;5091358;28;20434;-71
2020/12/07 07:23:29;;;;;;;37.03;20.93;;;4.40;99.90;;;;;;5094132;28;20181;-71
2020/12/07 07:26:01;;;;;;;31.67;22.10;;;4.50;99.90;;;;;;5093064;28;20442;-71
2020/12/07 07:28:28;;;;;;;31.40;19.40;;;4.40;99.90;;;;;;5094509;28;20432;-71
2020/12/07 07:30:54;;;;;;;31.73;21.63;;;4.50;99.90;;;;;;5094346;28;20510;-71
2020/12/07 07:33:19;;;;;;;34.10;19.30;;;4.60;99.90;;;;;;5094212;28;20566;-70
2020/12/07 07:35:45;;;;;;;32.33;20.97;;;4.70;99.90;;;;;;5094083;28;20225;-70
2020/12/07 07:38:11;;;;;;;31.80;18.03;;;4.70;99.90;;;;;;5091435;28;20655;-70
2020/12/07 07:40:36;;;;;;;34.33;20.10;;;4.80;99.90;;;;;;5093429;28;20197;-70
2020/12/07 07:43:04;;;;;;;28.80;18.80;;;4.70;99.90;;;;;;5092160;28;20532;-70
2020/12/07 07:45:38;;;;;;;32.37;19.30;;;4.60;99.90;;;;;;5093789;28;20180;-70
2020/12/07 08:16:21;;;;;;;27.07;17.80;;;5.30;99.90;;;;;;5051412;28;20795;-71
2020/12/07 08:18:48;;;;;;;26.30;17.70;;;5.30;99.90;;;;;;5065142;28;21032;-71
2020/12/07 08:21:28;;;;;;;28.67;17.00;;;5.40;99.90;;;;;;5087471;28;20463;-70
2020/12/07 08:23:58;;;;;;;24.23;15.27;;;5.40;99.90;;;;;;5089121;28;20423;-71
2020/12/07 08:26:24;;;;;;;26.87;16.57;;;5.40;99.90;;;;;;5091505;28;20438;-70
2020/12/07 08:28:53;;;;;;;24.00;16.23;;;5.40;99.90;;;;;;5092355;28;20534;-70
2020/12/07 08:31:22;;;;;;;25.93;15.23;;;5.30;99.90;;;;;;5092315;28;20514;-71
2020/12/07 08:33:58;;;;;;;31.27;17.10;;;5.40;99.90;;;;;;5093056;28;20427;-70
2020/12/07 08:36:25;;;;;;;31.97;18.10;;;5.40;99.90;;;;;;5090751;28;20431;-70
2020/12/07 08:38:51;;;;;;;24.73;15.63;;;5.40;99.90;;;;;;5092380;28;20443;-71
2020/12/07 08:41:28;;;;;;;22.30;15.10;;;5.40;99.90;;;;;;5092775;28;20457;-71
2020/12/07 08:43:58;;;;;;;22.47;13.97;;;5.50;99.90;;;;;;5082306;28;20482;-71
2020/12/07 08:46:28;;;;;;;21.60;13.80;;;5.40;99.90;;;;;;5088317;28;20434;-71
2020/12/07 08:48:55;;;;;;;23.43;14.63;;;5.30;99.90;;;;;;5093955;28;20446;-71
2020/12/07 08:51:22;;;;;;;30.87;14.70;;;5.40;99.90;;;;;;5093239;28;20809;-71
2020/12/07 08:53:48;;;;;;;24.73;16.80;;;5.40;99.90;;;;;;5091551;28;20426;-71
2020/12/07 08:56:14;;;;;;;24.17;14.03;;;5.50;99.90;;;;;;5094303;28;20420;-71
2020/12/07 08:58:40;;;;;;;24.07;14.87;;;5.30;99.90;;;;;;5091733;28;20267;-71
2020/12/07 09:01:07;;;;;;;22.63;13.93;;;5.30;99.90;;;;;;5091527;28;20455;-70
2020/12/07 09:03:35;;;;;;;22.10;12.80;;;5.40;99.90;;;;;;5092627;28;20198;-71
2020/12/07 09:06:01;;;;;;;20.30;13.53;;;5.30;99.90;;;;;;5092074;28;20470;-71
2020/12/07 09:08:27;;;;;;;20.20;12.17;;;5.30;99.90;;;;;;5094673;28;20840;-71
2020/12/07 09:10:53;;;;;;;22.03;11.97;;;5.20;99.90;;;;;;5092924;28;20447;-71
2020/12/07 09:13:19;;;;;;;21.53;13.33;;;5.30;99.90;;;;;;5092305;28;20182;-72
2020/12/07 09:15:44;;;;;;;20.83;13.67;;;5.30;99.90;;;;;;5092826;28;20262;-71
2020/12/07 09:18:10;;;;;;;20.87;13.80;;;5.20;99.90;;;;;;5092649;28;20173;-71
2020/12/07 09:20:35;;;;;;;19.27;12.97;;;5.30;99.90;;;;;;5091800;28;20213;-71
2020/12/07 09:23:01;;;;;;;18.70;11.07;;;5.30;99.90;;;;;;5092439;28;20234;-73
2020/12/07 09:25:27;;;;;;;24.27;15.50;;;5.30;99.90;;;;;;5093489;28;20177;-72
2020/12/07 09:27:53;;;;;;;22.20;14.73;;;5.50;99.90;;;;;;5092107;28;20223;-73
2020/12/07 09:30:18;;;;;;;20.90;11.80;;;5.70;99.90;;;;;;5092149;28;20204;-73
2020/12/07 09:32:44;;;;;;;21.33;10.23;;;5.60;99.90;;;;;;5090726;28;20169;-72
2020/12/07 09:35:10;;;;;;;13.77;10.77;;;5.50;99.90;;;;;;5089745;28;20193;-72
2020/12/07 09:37:36;;;;;;;19.13;12.57;;;5.60;99.90;;;;;;5091862;28;20176;-72
2020/12/07 09:40:07;;;;;;;21.20;13.77;;;5.80;99.90;;;;;;5089828;28;20196;-72
2020/12/07 09:42:33;;;;;;;17.33;11.07;;;5.90;99.90;;;;;;5090558;28;20510;-72
2020/12/07 09:44:59;;;;;;;17.47;11.20;;;5.90;99.90;;;;;;5084197;28;20432;-72
2020/12/07 09:47:26;;;;;;;14.13;9.77;;;5.90;99.90;;;;;;5091453;28;20804;-72
2020/12/07 09:49:52;;;;;;;15.10;7.97;;;6.10;99.90;;;;;;5091884;28;20588;-72
2020/12/07 09:52:17;;;;;;;49.83;33.70;;;6.10;99.90;;;;;;5091450;28;20603;-72
2020/12/07 09:54:43;;;;;;;13.50;8.60;;;6.10;99.90;;;;;;5091544;28;20669;-72
2020/12/07 09:57:09;;;;;;;11.17;8.43;;;6.00;99.90;;;;;;5091984;28;20219;-73
2020/12/07 09:59:35;;;;;;;11.33;8.10;;;6.10;99.90;;;;;;5092431;28;20548;-73
2020/12/07 10:02:02;;;;;;;12.63;9.87;;;6.30;99.90;;;;;;5092675;28;20219;-72
2020/12/07 10:04:27;;;;;;;12.27;8.87;;;6.30;99.90;;;;;;5091309;28;20420;-73
2020/12/07 10:06:54;;;;;;;9.33;6.70;;;6.30;99.90;;;;;;5092898;28;20477;-73
2020/12/07 10:09:20;;;;;;;12.63;7.37;;;6.50;99.90;;;;;;5092520;28;20286;-73
2020/12/07 10:11:46;;;;;;;11.83;7.80;;;6.50;99.90;;;;;;5081055;28;20427;-73
2020/12/07 10:14:12;;;;;;;12.67;7.77;;;6.60;99.90;;;;;;5096507;28;20512;-73
2020/12/07 10:16:44;;;;;;;7.93;6.30;;;6.60;99.90;;;;;;5096905;28;20888;-73
2020/12/07 10:19:11;;;;;;;6.97;5.33;;;6.40;99.90;;;;;;5090905;28;20200;-72
2020/12/07 10:21:36;;;;;;;8.07;5.93;;;6.50;99.90;;;;;;5095440;28;20428;-73
2020/12/07 10:24:02;;;;;;;8.70;6.57;;;6.50;99.90;;;;;;5095611;28;20419;-73
2020/12/07 10:26:28;;;;;;;7.23;5.20;;;6.30;99.90;;;;;;5095830;28;20516;-73
2020/12/07 10:28:54;;;;;;;10.50;6.60;;;6.40;99.90;;;;;;5096367;28;20453;-73
2020/12/07 10:31:21;;;;;;;6.03;4.77;;;6.30;99.90;;;;;;5097187;28;20415;-73
2020/12/07 10:33:48;;;;;;;7.70;4.40;;;6.30;99.90;;;;;;5096222;28;20435;-73
2020/12/07 10:36:14;;;;;;;5.77;4.30;;;6.20;99.90;;;;;;5096421;28;20973;-73
2020/12/07 10:38:39;;;;;;;10.07;7.47;;;6.40;99.90;;;;;;5096749;28;20419;-73
2020/12/07 10:41:05;;;;;;;8.87;4.90;;;6.50;99.90;;;;;;5096328;28;20197;-73
2020/12/07 10:43:31;;;;;;;7.37;5.17;;;6.80;99.90;;;;;;5096545;28;20169;-73
2020/12/07 10:45:57;;;;;;;5.67;4.53;;;6.80;99.90;;;;;;5096096;28;20170;-73
2020/12/07 10:48:23;;;;;;;5.37;4.53;;;6.90;99.90;;;;;;5096609;28;20472;-73
2020/12/07 10:50:48;;;;;;;11.07;7.77;;;7.00;99.90;;;;;;5094747;28;20177;-74
2020/12/07 10:53:14;;;;;;;8.10;6.60;;;7.20;99.90;;;;;;5090751;28;20185;-72
2020/12/07 10:55:42;;;;;;;5.93;5.07;;;7.20;99.90;;;;;;5089281;28;20212;-73
2020/12/07 10:58:08;;;;;;;7.33;4.50;;;7.30;99.90;;;;;;5091202;28;20170;-71
2020/12/07 11:00:37;;;;;;;8.10;4.80;;;7.40;99.90;;;;;;5092494;28;20466;-72
2020/12/07 11:03:03;;;;;;;8.30;4.63;;;7.50;99.90;;;;;;5092607;28;20209;-72
2020/12/07 11:05:29;;;;;;;5.17;4.67;;;7.50;99.90;;;;;;5088260;28;20428;-72
2020/12/07 11:07:55;;;;;;;4.50;4.10;;;7.50;99.90;;;;;;5093564;28;20457;-71
2020/12/07 11:10:21;;;;;;;4.27;3.87;;;7.50;99.90;;;;;;5092373;28;20204;-71
2020/12/07 11:12:53;;;;;;;5.00;4.50;;;7.50;99.90;;;;;;5092938;28;20779;-72
2020/12/07 11:15:19;;;;;;;6.87;5.67;;;7.30;99.90;;;;;;5092746;28;20178;-71
2020/12/07 11:17:44;;;;;;;5.23;4.50;;;7.30;99.90;;;;;;5093224;28;20434;-71
2020/12/07 11:20:10;;;;;;;5.77;5.00;;;7.30;99.90;;;;;;5093546;28;20427;-71
2020/12/07 11:22:36;;;;;;;5.50;4.90;;;7.20;99.90;;;;;;5093213;28;20173;-72
2020/12/07 11:25:01;;;;;;;5.97;5.30;;;7.20;99.90;;;;;;5092787;28;20173;-71
2020/12/07 11:27:27;;;;;;;8.03;5.00;;;7.10;99.90;;;;;;5092662;28;20252;-71
2020/12/07 11:29:53;;;;;;;6.03;5.37;;;7.20;99.90;;;;;;5093190;28;20515;-71
2020/12/07 11:32:18;;;;;;;8.30;7.30;;;7.10;99.90;;;;;;5091879;28;20173;-71
2020/12/07 11:34:44;;;;;;;9.33;6.40;;;7.00;99.90;;;;;;5091605;28;20205;-71
2020/12/07 11:37:09;;;;;;;6.27;5.07;;;7.10;99.90;;;;;;5092758;28;20166;-71
2020/12/07 11:40:00;;;;;;;8.27;6.27;;;7.20;99.90;;;;;;5091784;28;20249;-71
2020/12/07 11:42:33;;;;;;;7.47;5.50;;;7.10;99.90;;;;;;5092747;28;20635;-71
2020/12/07 11:44:58;;;;;;;5.87;5.27;;;7.20;99.90;;;;;;5092940;28;20984;-71
2020/12/07 11:47:24;;;;;;;7.67;5.90;;;7.20;99.90;;;;;;5093001;28;20416;-71
2020/12/07 11:49:50;;;;;;;9.00;4.50;;;6.90;99.90;;;;;;5092838;28;20189;-71
2020/12/07 11:52:16;;;;;;;8.43;4.77;;;6.60;99.90;;;;;;5086645;28;20173;-72
2020/12/07 11:54:42;;;;;;;5.50;3.97;;;6.50;99.90;;;;;;5092220;28;20656;-72
2020/12/07 11:57:07;;;;;;;7.10;5.27;;;6.30;99.90;;;;;;5092594;28;20556;-71
2020/12/07 11:59:34;;;;;;;4.63;3.77;;;6.20;99.90;;;;;;5092647;28;20698;-71
2020/12/07 12:02:00;;;;;;;3.40;3.10;;;6.10;99.90;;;;;;5091408;28;20174;-72
2020/12/07 12:04:25;;;;;;;4.13;3.60;;;5.90;99.90;;;;;;5092622;28;20429;-72
2020/12/07 12:06:51;;;;;;;4.43;3.87;;;5.80;99.90;;;;;;5092248;28;20228;-72
2020/12/07 12:09:17;;;;;;;4.43;3.60;;;5.80;99.90;;;;;;5092255;28;20192;-71
2020/12/07 12:11:44;;;;;;;4.83;3.70;;;5.80;99.90;;;;;;5092322;28;20531;-72
2020/12/07 12:14:10;;;;;;;4.90;3.10;;;5.80;99.90;;;;;;5092478;28;20207;-71
2020/12/07 12:16:38;;;;;;;4.10;3.70;;;5.70;99.90;;;;;;5091929;28;20437;-71
2020/12/07 12:19:09;;;;;;;6.37;3.50;;;5.70;99.90;;;;;;5076642;28;20438;-72
2020/12/07 12:21:36;;;;;;;4.70;4.00;;;5.80;99.90;;;;;;5092053;28;20755;-71
2020/12/07 12:24:04;;;;;;;7.07;4.47;;;5.80;99.90;;;;;;5092101;28;20428;-71
2020/12/07 12:26:34;;;;;;;4.37;3.97;;;5.90;99.90;;;;;;5092178;28;20420;-69
2020/12/07 12:29:00;;;;;;;6.23;3.50;;;6.00;99.90;;;;;;5076192;28;20443;-70
2020/12/07 12:31:26;;;;;;;5.73;4.47;;;6.00;99.90;;;;;;5092554;28;20912;-70
2020/12/07 12:33:53;;;;;;;5.83;4.63;;;6.10;99.90;;;;;;5092173;28;20487;-71
2020/12/07 12:36:21;;;;;;;4.50;4.10;;;6.20;99.90;;;;;;5091089;28;20193;-71
2020/12/07 12:38:48;;;;;;;8.40;5.47;;;6.20;99.90;;;;;;5094503;28;21226;-72
2020/12/07 12:41:14;;;;;;;11.17;5.83;;;6.30;99.90;;;;;;5096327;28;21206;-72
2020/12/07 12:43:40;;;;;;;6.17;5.13;;;6.30;99.90;;;;;;5090719;28;20423;-72
2020/12/07 12:46:06;;;;;;;7.57;5.93;;;6.40;99.90;;;;;;5091989;28;20427;-72
2020/12/07 12:48:33;;;;;;;8.97;5.60;;;6.50;99.90;;;;;;5091769;28;20196;-72
2020/12/07 12:50:58;;;;;;;7.37;5.70;;;6.60;99.90;;;;;;5091665;28;20434;-72
2020/12/07 12:53:24;;;;;;;5.77;5.10;;;6.80;99.90;;;;;;5091528;28;20863;-72
2020/12/07 12:55:50;;;;;;;7.43;5.37;;;6.80;99.90;;;;;;5089320;28;20193;-71
2020/12/07 12:58:15;;;;;;;4.30;3.90;;;6.70;99.90;;;;;;5085507;28;20630;-71
2020/12/07 13:00:41;;;;;;;8.47;5.20;;;6.40;99.90;;;;;;5091144;28;20200;-72
2020/12/07 13:03:07;;;;;;;5.80;4.83;;;6.60;99.90;;;;;;5091721;28;20635;-71
2020/12/07 13:05:33;;;;;;;9.27;5.93;;;6.60;99.90;;;;;;5091686;28;20181;-72
2020/12/07 13:07:58;;;;;;;5.90;4.70;;;6.60;99.90;;;;;;5091514;28;20201;-71